createdAt,value
2018-08-07T00:01:36.151Z,71.74
2018-08-07T00:04:04.932Z,73.00
2018-08-07T00:06:33.540Z,72.06
2018-08-07T00:09:02.286Z,71.04
2018-08-07T00:11:31.006Z,72.67
2018-08-07T00:13:59.735Z,73.92
2018-08-07T00:16:28.401Z,72.59
2018-08-07T00:18:57.054Z,74.47
2018-08-07T00:21:25.682Z,74.21
2018-08-07T00:23:54.341Z,74.76
2018-08-07T00:26:22.991Z,75.37
2018-08-07T00:28:51.589Z,75.27
2018-08-07T00:31:20.206Z,74.71
2018-08-07T00:33:48.839Z,74.15
2018-08-07T00:36:17.506Z,74.75
2018-08-07T00:38:46.155Z,75.15
2018-08-07T00:41:14.820Z,74.99
2018-08-07T00:43:43.470Z,75.19
2018-08-07T00:46:12.172Z,74.72
2018-08-07T00:48:40.878Z,76.14
2018-08-07T00:51:09.534Z,74.60
2018-08-07T00:53:38.152Z,75.16
2018-08-07T00:56:06.912Z,73.42
2018-08-07T00:58:35.615Z,77.10
2018-08-07T01:01:04.234Z,78.09
2018-08-07T01:03:33.132Z,78.62
2018-08-07T01:06:01.835Z,76.09
2018-08-07T01:08:30.450Z,75.30
2018-08-07T01:10:59.118Z,74.63
2018-08-07T01:13:27.787Z,74.63
2018-08-07T01:15:56.454Z,75.48
2018-08-07T01:18:25.114Z,74.98
2018-08-07T01:20:53.681Z,75.01
2018-08-07T01:23:22.374Z,74.26
2018-08-07T01:25:51.062Z,75.36
2018-08-07T01:28:19.723Z,75.28
2018-08-07T01:30:48.360Z,76.00
2018-08-07T01:33:16.932Z,75.80
2018-08-07T01:35:45.574Z,74.46
2018-08-07T01:38:14.243Z,74.43
2018-08-07T01:40:42.896Z,75.67
2018-08-07T01:43:11.535Z,75.54
2018-08-07T01:45:40.183Z,76.18
2018-08-07T01:48:08.834Z,76.44
2018-08-07T01:50:37.509Z,74.94
2018-08-07T01:53:06.219Z,75.26
2018-08-07T01:55:34.840Z,75.43
2018-08-07T01:58:03.507Z,75.77
2018-08-07T02:00:32.161Z,75.66
2018-08-07T02:03:00.795Z,74.08
2018-08-07T02:05:29.386Z,75.36
2018-08-07T02:07:57.991Z,76.18
2018-08-07T02:10:26.639Z,75.00
2018-08-07T02:12:55.282Z,76.93
2018-08-07T02:15:23.946Z,79.45
2018-08-07T02:17:52.575Z,79.86
2018-08-07T02:20:21.187Z,80.18
2018-08-07T02:22:49.858Z,79.73
2018-08-07T02:25:19.562Z,78.40
2018-08-07T02:27:48.694Z,78.36
2018-08-07T02:30:18.016Z,76.90
2018-08-07T02:32:46.661Z,76.63
2018-08-07T02:35:16.202Z,75.79
2018-08-07T02:37:45.744Z,76.10
2018-08-07T02:40:14.894Z,78.21
2018-08-07T02:42:43.974Z,78.73
2018-08-07T02:45:16.446Z,80.87
2018-08-07T02:47:45.562Z,81.07
2018-08-07T02:50:16.825Z,79.61
2018-08-07T02:52:45.631Z,76.90
2018-08-07T02:55:14.322Z,75.45
2018-08-07T02:57:43.624Z,76.75
2018-08-07T03:00:17.763Z,76.86
2018-08-07T03:02:46.638Z,75.96
2018-08-07T03:05:15.429Z,76.15
2018-08-07T03:07:44.175Z,76.75
2018-08-07T03:10:12.819Z,77.29
2018-08-07T03:12:41.438Z,77.19
2018-08-07T03:15:13.757Z,77.02
2018-08-07T03:17:43.062Z,78.81
2018-08-07T03:20:11.753Z,77.16
2018-08-07T03:22:40.394Z,78.25
2018-08-07T03:25:10.763Z,79.71
2018-08-07T03:27:39.410Z,79.66
2018-08-07T03:30:10.295Z,75.84
2018-08-07T03:32:39.155Z,77.08
2018-08-07T03:35:08.022Z,75.29
2018-08-07T03:37:37.368Z,75.26
2018-08-07T03:40:08.411Z,75.13
2018-08-07T03:42:37.163Z,73.50
2018-08-07T03:45:06.585Z,72.83
2018-08-07T03:47:35.333Z,72.82
2018-08-07T03:50:04.018Z,71.87
2018-08-07T03:52:32.743Z,71.56
2018-08-07T03:55:01.407Z,72.64
2018-08-07T03:57:30.127Z,71.03
2018-08-07T03:59:58.743Z,72.34
2018-08-07T04:02:27.407Z,71.05
2018-08-07T04:04:56.007Z,70.16
2018-08-07T04:07:24.647Z,72.41
2018-08-07T04:09:53.287Z,73.11
2018-08-07T04:12:22.264Z,73.73
2018-08-07T04:14:50.850Z,73.81
2018-08-07T04:17:19.486Z,74.62
2018-08-07T04:19:48.127Z,73.33
2018-08-07T04:22:16.746Z,73.60
2018-08-07T04:24:45.383Z,74.29
2018-08-07T04:27:14.058Z,74.48
2018-08-07T04:29:42.668Z,74.54
2018-08-07T04:32:11.291Z,76.31
2018-08-07T04:34:39.961Z,76.36
2018-08-07T04:37:08.539Z,77.43
2018-08-07T04:39:37.203Z,77.68
2018-08-07T04:42:05.863Z,76.62
2018-08-07T04:44:34.812Z,72.71
2018-08-07T04:47:03.467Z,69.30
2018-08-07T04:49:32.106Z,67.30
2018-08-07T04:52:00.779Z,67.48
2018-08-07T04:54:29.506Z,67.17
2018-08-07T04:56:58.118Z,66.53
2018-08-07T04:59:26.678Z,66.44
2018-08-07T05:01:55.339Z,66.38
2018-08-07T05:04:23.957Z,66.09
2018-08-07T05:06:52.619Z,66.25
2018-08-07T05:09:21.258Z,66.54
2018-08-07T05:11:49.884Z,67.35
2018-08-07T05:14:18.559Z,66.53
2018-08-07T05:16:47.246Z,65.53
2018-08-07T05:19:15.907Z,65.36
2018-08-07T05:21:44.560Z,65.22
2018-08-07T05:24:13.244Z,64.10
2018-08-07T05:26:41.903Z,62.59
2018-08-07T05:29:10.643Z,62.38
2018-08-07T05:31:39.270Z,61.59
2018-08-07T05:34:08.230Z,61.32
2018-08-07T05:36:36.893Z,59.21
2018-08-07T05:39:08.143Z,59.60
2018-08-07T05:41:36.823Z,58.61
2018-08-07T05:44:05.563Z,58.08
2018-08-07T05:46:34.287Z,57.52
2018-08-07T05:49:02.987Z,56.14
2018-08-07T05:51:31.902Z,56.21
2018-08-07T05:54:00.626Z,54.93
2018-08-07T05:56:29.378Z,55.45
2018-08-07T05:58:57.998Z,55.67
2018-08-07T06:01:26.641Z,54.97
2018-08-07T06:03:55.424Z,54.96
2018-08-07T06:06:24.218Z,55.01
2018-08-07T06:08:52.853Z,52.81
2018-08-07T06:11:21.550Z,53.29
2018-08-07T06:13:50.193Z,53.45
2018-08-07T06:16:18.811Z,52.76
2018-08-07T06:18:47.484Z,50.97
2018-08-07T06:21:16.162Z,50.07
2018-08-07T06:23:44.784Z,51.60
2018-08-07T06:26:13.486Z,52.02
2018-08-07T06:28:42.249Z,50.82
2018-08-07T06:31:10.858Z,50.91
2018-08-07T06:33:39.566Z,49.33
2018-08-07T06:36:08.302Z,47.52
2018-08-07T06:38:36.956Z,47.85
2018-08-07T06:41:05.651Z,48.03
2018-08-07T06:43:34.362Z,48.05
2018-08-07T06:46:03.031Z,46.23
2018-08-07T06:48:31.719Z,47.79
2018-08-07T06:51:00.367Z,47.72
2018-08-07T06:53:28.950Z,47.45
2018-08-07T06:55:57.663Z,46.08
2018-08-07T06:58:26.316Z,46.28
2018-08-07T07:00:55.003Z,45.14
2018-08-07T07:03:23.629Z,47.12
2018-08-07T07:05:52.294Z,47.06
2018-08-07T07:08:20.942Z,47.88
2018-08-07T07:10:49.551Z,44.66
2018-08-07T07:13:18.220Z,44.23
2018-08-07T07:15:46.891Z,44.93
2018-08-07T07:18:15.554Z,43.96
2018-08-07T07:20:44.193Z,43.91
2018-08-07T07:23:12.804Z,44.04
2018-08-07T07:25:41.422Z,43.03
2018-08-07T07:28:10.073Z,42.77
2018-08-07T07:30:38.768Z,42.43
2018-08-07T07:33:07.448Z,43.19
2018-08-07T07:35:36.112Z,42.51
2018-08-07T07:38:04.766Z,42.84
2018-08-07T07:40:33.379Z,40.99
2018-08-07T07:43:02.242Z,40.14
2018-08-07T07:45:30.975Z,40.99
2018-08-07T07:47:59.616Z,41.00
2018-08-07T07:50:28.313Z,40.61
2018-08-07T07:52:56.931Z,39.64
2018-08-07T07:55:25.630Z,40.54
2018-08-07T07:57:54.555Z,41.38
2018-08-07T08:00:25.364Z,42.23
2018-08-07T08:02:54.258Z,41.61
2018-08-07T08:05:23.923Z,38.34
2018-08-07T08:07:52.886Z,39.04
2018-08-07T08:10:21.556Z,39.06
2018-08-07T08:12:50.312Z,38.11
2018-08-07T08:15:19.409Z,38.37
2018-08-07T08:17:48.808Z,38.76
2018-08-07T08:20:22.479Z,37.79
2018-08-07T08:22:52.023Z,38.11
2018-08-07T08:25:20.816Z,38.07
2018-08-07T08:27:49.548Z,38.40
2018-08-07T08:30:18.626Z,37.89
2018-08-07T08:32:47.632Z,38.96
2018-08-07T08:35:17.516Z,38.54
2018-08-07T08:37:46.678Z,38.54
2018-08-07T08:40:17.760Z,38.15
2018-08-07T08:42:46.483Z,37.79
2018-08-07T08:45:19.590Z,36.85
2018-08-07T08:47:50.472Z,37.01
2018-08-07T08:50:20.216Z,36.72
2018-08-07T08:52:48.962Z,35.43
2018-08-07T08:55:17.626Z,34.90
2018-08-07T08:57:46.496Z,35.63
2018-08-07T09:00:18.903Z,33.40
2018-08-07T09:02:47.950Z,31.27
2018-08-07T09:05:16.712Z,32.75
2018-08-07T09:07:45.625Z,32.50
2018-08-07T09:10:19.528Z,34.82
2018-08-07T09:12:48.617Z,33.98
2018-08-07T09:15:17.458Z,34.44
2018-08-07T09:17:46.218Z,33.25
2018-08-07T09:20:18.171Z,32.25
2018-08-07T09:22:46.783Z,32.78
2018-08-07T09:25:15.523Z,31.70
2018-08-07T09:27:44.298Z,29.99
2018-08-07T09:30:19.503Z,30.99
2018-08-07T09:32:49.203Z,31.22
2018-08-07T09:35:18.702Z,29.63
2018-08-07T09:37:47.454Z,29.44
2018-08-07T09:40:17.329Z,30.35
2018-08-07T09:42:47.410Z,30.00
2018-08-07T09:45:21.722Z,28.99
2018-08-07T09:47:50.489Z,29.39
2018-08-07T09:50:19.617Z,25.81
2018-08-07T09:52:48.880Z,26.30
2018-08-07T09:55:17.603Z,28.27
2018-08-07T09:57:46.298Z,28.24
2018-08-07T10:00:22.138Z,29.63
2018-08-07T10:02:52.631Z,28.83
2018-08-07T10:05:23.240Z,25.74
2018-08-07T10:07:51.948Z,25.67
2018-08-07T10:10:21.033Z,24.41
2018-08-07T10:12:49.738Z,24.27
2018-08-07T10:15:18.643Z,24.33
2018-08-07T10:17:47.403Z,26.33
2018-08-07T10:20:16.351Z,25.12
2018-08-07T10:22:45.169Z,23.71
2018-08-07T10:25:16.062Z,24.81
2018-08-07T10:27:45.758Z,24.56
2018-08-07T10:30:16.694Z,25.91
2018-08-07T10:32:45.506Z,26.41
2018-08-07T10:35:14.817Z,25.90
2018-08-07T10:37:44.295Z,24.98
2018-08-07T10:40:14.689Z,24.52
2018-08-07T10:42:43.486Z,24.92
2018-08-07T10:45:16.294Z,23.81
2018-08-07T10:47:45.059Z,24.06
2018-08-07T10:50:16.963Z,23.49
2018-08-07T10:52:45.804Z,23.00
2018-08-07T10:55:14.588Z,22.08
2018-08-07T10:57:45.298Z,21.86
2018-08-07T11:00:22.136Z,21.86
2018-08-07T11:02:51.599Z,22.46
2018-08-07T11:05:21.590Z,21.48
2018-08-07T11:07:50.467Z,21.34
2018-08-07T11:10:19.495Z,20.85
2018-08-07T11:12:48.541Z,19.73
2018-08-07T11:15:21.407Z,19.64
2018-08-07T11:17:50.837Z,20.94
2018-08-07T11:20:19.714Z,21.64
2018-08-07T11:22:49.512Z,23.61
2018-08-07T11:25:19.384Z,22.96
2018-08-07T11:27:48.135Z,22.28
2018-08-07T11:30:18.702Z,21.41
2018-08-07T11:32:47.803Z,22.01
2018-08-07T11:35:16.774Z,23.22
2018-08-07T11:37:47.594Z,21.87
2018-08-07T11:40:17.955Z,21.61
2018-08-07T11:42:47.604Z,21.85
2018-08-07T11:45:31.078Z,21.94
2018-08-07T11:47:59.883Z,21.75
2018-08-07T11:50:30.854Z,22.71
2018-08-07T11:52:59.618Z,22.90
2018-08-07T11:55:28.795Z,22.56
2018-08-07T11:57:57.527Z,22.39
2018-08-07T12:00:40.041Z,23.58
2018-08-07T12:03:11.670Z,22.86
2018-08-07T12:05:40.324Z,21.72
2018-08-07T12:08:09.356Z,21.28
2018-08-07T12:10:38.012Z,21.69
2018-08-07T12:13:06.823Z,23.64
2018-08-07T12:15:35.513Z,24.03
2018-08-07T12:18:04.182Z,24.29
2018-08-07T12:20:32.778Z,24.25
2018-08-07T12:23:01.508Z,24.51
2018-08-07T12:25:30.327Z,25.58
2018-08-07T12:27:59.030Z,23.49
2018-08-07T12:30:29.776Z,22.87
2018-08-07T12:32:58.982Z,22.01
2018-08-07T12:35:27.691Z,23.42
2018-08-07T12:37:56.476Z,24.60
2018-08-07T12:40:27.828Z,22.49
2018-08-07T12:42:59.704Z,24.21
2018-08-07T12:45:28.408Z,24.90
2018-08-07T12:47:57.161Z,24.92
2018-08-07T12:50:25.810Z,24.99
2018-08-07T12:52:54.551Z,25.42
2018-08-07T12:55:24.011Z,24.82
2018-08-07T12:57:53.175Z,26.20
2018-08-07T13:00:23.314Z,27.47
2018-08-07T13:02:52.118Z,31.24
2018-08-07T13:05:20.960Z,33.11
2018-08-07T13:07:49.745Z,33.70
2018-08-07T13:10:19.886Z,34.00
2018-08-07T13:12:49.248Z,34.45
2018-08-07T13:15:19.088Z,36.19
2018-08-07T13:17:48.159Z,36.99
2018-08-07T13:20:16.972Z,37.60
2018-08-07T13:22:46.317Z,38.04
2018-08-07T13:25:17.039Z,36.82
2018-08-07T13:27:45.746Z,37.16
2018-08-07T13:30:25.656Z,38.82
2018-08-07T13:32:54.464Z,40.17
2018-08-07T13:35:23.326Z,41.32
2018-08-07T13:37:52.646Z,40.50
2018-08-07T13:40:22.817Z,43.51
2018-08-07T13:42:51.462Z,44.03
2018-08-07T13:45:21.767Z,43.85
2018-08-07T13:47:50.498Z,43.87
2018-08-07T13:50:20.246Z,43.33
2018-08-07T13:52:49.545Z,42.85
2018-08-07T13:55:19.134Z,43.24
2018-08-07T13:57:47.997Z,43.06
2018-08-07T14:00:19.619Z,43.81
2018-08-07T14:02:48.977Z,44.25
2018-08-07T14:05:18.584Z,43.87
2018-08-07T14:07:48.437Z,43.72
2018-08-07T14:10:17.844Z,43.25
2018-08-07T14:12:46.578Z,44.06
2018-08-07T14:15:16.388Z,43.83
2018-08-07T14:17:45.586Z,44.05
2018-08-07T14:20:15.298Z,45.11
2018-08-07T14:22:44.054Z,43.72
2018-08-07T14:25:21.850Z,42.75
2018-08-07T14:27:50.606Z,42.21
2018-08-07T14:30:21.386Z,42.23
2018-08-07T14:32:50.187Z,42.12
2018-08-07T14:35:19.137Z,42.36
2018-08-07T14:37:48.383Z,42.70
2018-08-07T14:40:22.189Z,41.70
2018-08-07T14:42:51.423Z,42.61
2018-08-07T14:45:24.447Z,43.64
2018-08-07T14:47:53.828Z,42.46
2018-08-07T14:50:24.532Z,41.99
2018-08-07T14:52:53.519Z,42.02
2018-08-07T14:55:22.349Z,41.61
2018-08-07T14:57:51.419Z,41.14
2018-08-07T15:00:25.192Z,41.62
2018-08-07T15:02:53.932Z,41.66
2018-08-07T15:05:22.712Z,41.65
2018-08-07T15:07:51.366Z,42.65
2018-08-07T15:10:25.539Z,41.93
2018-08-07T15:12:54.335Z,42.48
2018-08-07T15:15:28.184Z,44.11
2018-08-07T15:17:56.936Z,44.30
2018-08-07T15:20:27.188Z,44.33
2018-08-07T15:22:56.508Z,44.47
2018-08-07T15:25:25.590Z,43.56
2018-08-07T15:27:54.230Z,44.52
2018-08-07T15:30:24.849Z,44.32
2018-08-07T15:32:53.898Z,43.60
2018-08-07T15:35:24.001Z,43.00
2018-08-07T15:37:52.638Z,43.30
2018-08-07T15:40:21.590Z,43.30
2018-08-07T15:42:50.479Z,43.11
2018-08-07T15:45:21.462Z,43.24
2018-08-07T15:47:50.196Z,44.61
2018-08-07T15:50:19.475Z,44.10
2018-08-07T15:52:49.665Z,44.16
2018-08-07T15:55:19.923Z,44.13
2018-08-07T15:57:48.645Z,44.30
2018-08-07T16:00:20.605Z,45.06
2018-08-07T16:02:49.474Z,44.63
2018-08-07T16:05:18.494Z,45.26
2018-08-07T16:07:47.558Z,44.37
2018-08-07T16:10:17.443Z,45.71
2018-08-07T16:13:24.044Z,45.00
2018-08-07T16:15:52.732Z,44.51
2018-08-07T16:18:21.396Z,44.68
2018-08-07T16:20:50.188Z,45.04
2018-08-07T16:23:18.947Z,46.12
2018-08-07T16:25:47.610Z,45.12
2018-08-07T16:28:16.294Z,45.12
2018-08-07T16:30:44.981Z,45.92
2018-08-07T16:33:13.655Z,46.60
2018-08-07T16:35:42.438Z,47.02
2018-08-07T16:38:11.147Z,47.58
2018-08-07T16:40:39.879Z,47.62
2018-08-07T16:43:08.586Z,48.19
2018-08-07T16:45:37.232Z,47.45
2018-08-07T16:48:06.341Z,47.31
2018-08-07T16:50:35.195Z,47.96
2018-08-07T16:53:03.878Z,48.72
2018-08-07T16:55:32.527Z,49.08
2018-08-07T16:58:01.263Z,49.31
2018-08-07T17:00:30.080Z,48.89
2018-08-07T17:02:58.755Z,50.37
2018-08-07T17:05:27.450Z,50.26
2018-08-07T17:07:56.262Z,51.09
2018-08-07T17:10:27.616Z,50.25
2018-08-07T17:12:56.418Z,50.30
2018-08-07T17:15:25.177Z,51.22
2018-08-07T17:17:53.926Z,50.62
2018-08-07T17:20:23.382Z,51.03
2018-08-07T17:22:52.686Z,50.77
2018-08-07T17:25:22.478Z,51.71
2018-08-07T17:27:51.438Z,51.88
2018-08-07T17:30:22.575Z,51.57
2018-08-07T17:32:51.403Z,51.63
2018-08-07T17:35:22.445Z,52.22
2018-08-07T17:37:52.540Z,52.27
2018-08-07T17:40:23.614Z,53.19
2018-08-07T17:42:52.389Z,53.37
2018-08-07T17:45:21.408Z,53.31
2018-08-07T17:47:50.316Z,53.85
2018-08-07T17:50:20.397Z,54.06
2018-08-07T17:52:49.223Z,54.34
2018-08-07T17:55:18.219Z,54.64
2018-08-07T17:57:47.664Z,54.96
2018-08-07T18:00:19.071Z,55.13
2018-08-07T18:02:47.908Z,55.57
2018-08-07T18:05:16.586Z,55.96
2018-08-07T18:07:46.858Z,55.85
2018-08-07T18:10:16.913Z,55.89
2018-08-07T18:12:45.792Z,56.37
2018-08-07T18:15:15.679Z,56.29
2018-08-07T18:17:44.876Z,56.39
2018-08-07T18:20:15.284Z,56.81
2018-08-07T18:22:44.054Z,56.83
2018-08-07T18:25:12.796Z,56.97
2018-08-07T18:27:41.628Z,57.00
2018-08-07T18:30:15.312Z,57.15
2018-08-07T18:32:44.465Z,57.38
2018-08-07T18:35:17.123Z,57.31
2018-08-07T18:37:45.795Z,57.49
2018-08-07T18:40:14.535Z,57.04
2018-08-07T18:42:43.259Z,57.49
2018-08-07T18:45:13.152Z,57.56
2018-08-07T18:47:42.496Z,57.61
2018-08-07T18:50:13.681Z,57.88
2018-08-07T18:52:42.554Z,57.54
2018-08-07T18:55:12.967Z,57.44
2018-08-07T18:57:42.152Z,57.65
2018-08-07T19:00:15.645Z,57.29
2018-08-07T19:02:44.367Z,57.49
2018-08-07T19:05:14.848Z,58.42
2018-08-07T19:07:43.510Z,57.96
2018-08-07T19:10:12.618Z,58.18
2018-08-07T19:12:41.458Z,58.71
2018-08-07T19:15:11.235Z,58.09
2018-08-07T19:17:39.901Z,59.10
2018-08-07T19:20:09.668Z,59.54
2018-08-07T19:22:38.359Z,58.98
2018-08-07T19:25:08.316Z,59.50
2018-08-07T19:27:37.097Z,59.45
2018-08-07T19:30:09.914Z,59.49
2018-08-07T19:32:39.032Z,59.39
2018-08-07T19:35:08.401Z,59.85
2018-08-07T19:37:37.244Z,60.08
2018-08-07T19:40:07.636Z,59.69
2018-08-07T19:42:36.782Z,60.24
2018-08-07T19:45:07.497Z,59.49
2018-08-07T19:47:36.254Z,60.29
2018-08-07T19:50:05.923Z,59.66
2018-08-07T19:52:34.891Z,60.39
2018-08-07T19:55:03.638Z,60.80
2018-08-07T19:57:32.430Z,61.16
2018-08-07T20:00:01.168Z,60.08
2018-08-07T20:02:29.818Z,61.58
2018-08-07T20:04:58.475Z,61.94
2018-08-07T20:07:27.142Z,61.25
2018-08-07T20:09:55.811Z,61.04
2018-08-07T20:12:24.494Z,61.24
2018-08-07T20:14:53.116Z,61.25
2018-08-07T20:17:21.764Z,61.54
2018-08-07T20:19:50.522Z,61.82
2018-08-07T20:22:19.424Z,63.02
2018-08-07T20:24:48.142Z,63.03
2018-08-07T20:27:16.849Z,63.23
2018-08-07T20:29:45.534Z,63.84
2018-08-07T20:32:14.182Z,63.66
2018-08-07T20:34:42.895Z,63.70
2018-08-07T20:37:11.551Z,63.01
2018-08-07T20:39:40.226Z,63.51
2018-08-07T20:42:08.936Z,65.04
2018-08-07T20:44:37.622Z,65.54
2018-08-07T20:47:06.390Z,66.28
2018-08-07T20:49:35.116Z,66.97
2018-08-07T20:52:03.775Z,67.85
2018-08-07T20:54:32.447Z,68.10
2018-08-07T20:57:01.085Z,68.07
2018-08-07T20:59:29.729Z,69.01
2018-08-07T21:01:58.440Z,68.89
2018-08-07T21:04:27.124Z,69.68
2018-08-07T21:06:55.792Z,68.52
2018-08-07T21:09:24.421Z,69.49
2018-08-07T21:11:53.136Z,69.32
2018-08-07T21:14:21.851Z,68.47
2018-08-07T21:16:50.587Z,69.35
2018-08-07T21:19:19.277Z,70.44
2018-08-07T21:21:47.948Z,70.59
2018-08-07T21:24:16.621Z,70.94
2018-08-07T21:26:45.319Z,70.58
2018-08-07T21:29:13.998Z,69.38
2018-08-07T21:31:42.648Z,69.98
2018-08-07T21:34:11.272Z,69.66
2018-08-07T21:36:40.045Z,70.34
2018-08-07T21:39:09.844Z,70.51
2018-08-07T21:41:38.727Z,70.49
2018-08-07T21:44:07.623Z,71.15
2018-08-07T21:46:36.744Z,71.91
2018-08-07T21:49:05.656Z,71.32
2018-08-07T21:51:34.333Z,70.45
2018-08-07T21:54:03.157Z,71.64
2018-08-07T21:56:31.900Z,73.10
2018-08-07T21:59:00.628Z,74.28
2018-08-07T22:01:29.322Z,74.58
2018-08-07T22:03:57.937Z,73.86
2018-08-07T22:06:26.577Z,73.09
2018-08-07T22:08:55.222Z,73.43
2018-08-07T22:11:23.847Z,72.43
2018-08-07T22:13:52.558Z,71.38
2018-08-07T22:16:21.294Z,70.59
2018-08-07T22:18:49.996Z,71.14
2018-08-07T22:21:18.772Z,70.40
2018-08-07T22:23:47.428Z,70.33
2018-08-07T22:26:16.117Z,70.03
2018-08-07T22:28:44.777Z,69.80
2018-08-07T22:31:13.536Z,70.44
2018-08-07T22:33:42.164Z,70.57
2018-08-07T22:36:10.813Z,71.34
2018-08-07T22:38:39.466Z,71.16
2018-08-07T22:41:08.195Z,71.76
2018-08-07T22:43:36.819Z,71.66
2018-08-07T22:46:05.656Z,70.66
2018-08-07T22:48:34.271Z,71.54
2018-08-07T22:51:02.945Z,71.65
2018-08-07T22:53:31.630Z,72.03
2018-08-07T22:56:00.282Z,72.31
2018-08-07T22:58:28.926Z,73.00
2018-08-07T23:00:57.597Z,74.28
2018-08-07T23:03:26.289Z,74.91
2018-08-07T23:05:54.978Z,74.54
2018-08-07T23:08:23.686Z,75.95
2018-08-07T23:10:52.346Z,76.09
2018-08-07T23:13:21.009Z,74.88
2018-08-07T23:15:49.664Z,74.93
2018-08-07T23:18:18.294Z,74.23
2018-08-07T23:20:46.942Z,73.56
2018-08-07T23:23:15.590Z,73.99
2018-08-07T23:25:44.234Z,73.79
2018-08-07T23:28:12.862Z,74.54
2018-08-07T23:30:41.457Z,74.60
2018-08-07T23:33:10.185Z,75.20
2018-08-07T23:35:38.823Z,76.21
2018-08-07T23:38:07.592Z,76.20
2018-08-07T23:40:36.242Z,76.43
2018-08-07T23:43:04.935Z,76.13
2018-08-07T23:45:33.589Z,75.60
2018-08-07T23:48:02.229Z,75.48
2018-08-07T23:50:30.923Z,74.85
2018-08-07T23:52:59.615Z,75.34
2018-08-07T23:55:28.256Z,74.32
2018-08-07T23:57:56.943Z,74.49
